Aeroporto :
LOGIN :

Iscrizione | Disclaimer

   EN    FR    IT 

 










Sommario :    VFR   VFR Marginale   IFR   IFR Intensivo   IFR Molto Intensivo
Visibilità : 
Base nubi : 
>= 8 km
>= 3000ft
5 / 8 km
1000 / 3000 ft
1500m / 5 km
500 / 1000 ft
800 / 1500m
200 / 500 ft
< 800m
< 200 ft
Simboli :   Temporali  Nebbia  Neve Forte  Precipitazioni Forti  Vento > 20 kt
SIGMETs :   Varie  Temporali  Ghiacco  Turbolenza  Onda orograficha  Ceneri Vulcaniche






- Altitudine del aeroporto : 29 ft
- Codice IATA : SVG


ENZV - Sola

ULTIMO METAR :
  • 131420Z 11010KT 9999 FEW030CB SCT180 06/M01 Q0995 NOSIG

METARs OBSOLETI :
  • 131350Z 12009KT 9999 FEW040CB SCT120 07/M00 Q0995 NOSIG
  • 131320Z 11011KT 9999 FEW030 SCT080 07/00 Q0995 NOSIG
  • 131250Z 11012KT 9999 FEW030 SCT110 07/00 Q0995 NOSIG
  • 131220Z 13012KT 9999 FEW030 SCT100 07/01 Q0995 TEMPO SHRA
  • 131150Z 12010KT 9999 FEW030 BKN090 07/01 Q0995 TEMPO SHRA

AMD TAF ENZV
Valido dal 13 a 13 ore il 14 a 12 ore UTC


1313/1412 09008KT 9999 FEW040
TEMPO 1313/1315 FEW040CB



MetMap, La meteo Aeronautica in un colpo d'occhio ! - Copyright ORBIFLY Dicembre 2007 - Disclaimer

ORBIFLY MET'MAP TEAM :

Programmazione e sviluppo : Alexandra Zaïnal
Concezione e sviluppo : Baudouin d'Aumeries
Co-Programmazione e sviluppo : Marc-Olivier Méhu
Supporto tecnico e logistico : Manuel Goepfert
Aiuto per la traduzione : Arnaldo La Scala

Contatto : metmap@orbifly.com




FONTI E CREDITI :

   NOAA